createdAt,value
2019-05-19T00:00:09.327Z,36.67
2019-05-19T00:02:40.703Z,32.73
2019-05-19T00:05:07.887Z,36.13
2019-05-19T00:07:36.271Z,36.37
2019-05-19T00:10:06.475Z,40.03
2019-05-19T00:12:34.919Z,36.90
2019-05-19T00:15:04.535Z,41.03
2019-05-19T00:17:32.928Z,41.33
2019-05-19T00:20:01.692Z,44.80
2019-05-19T00:22:30.067Z,48.30
2019-05-19T00:24:58.447Z,43.57
2019-05-19T00:27:26.827Z,47.17
2019-05-19T00:29:55.211Z,45.23
2019-05-19T00:32:23.607Z,49.10
2019-05-19T00:34:51.995Z,49.57
2019-05-19T00:37:20.449Z,53.57
2019-05-19T00:39:48.827Z,58.03
2019-05-19T00:42:17.215Z,53.77
2019-05-19T00:44:45.596Z,59.60
2019-05-19T00:47:14.064Z,56.83
2019-05-19T00:49:42.447Z,55.30
2019-05-19T00:52:10.835Z,58.90
2019-05-19T00:54:39.211Z,54.63
2019-05-19T00:57:07.941Z,56.47
2019-05-19T00:59:37.155Z,65.80
2019-05-19T01:02:05.620Z,61.80
2019-05-19T01:04:33.992Z,67.37
2019-05-19T01:07:02.371Z,63.13
2019-05-19T01:09:30.765Z,65.20
2019-05-19T01:11:59.142Z,69.93
2019-05-19T01:14:27.533Z,73.50
2019-05-19T01:16:55.907Z,74.43
2019-05-19T01:19:24.291Z,71.03
2019-05-19T01:21:53.121Z,78.83
2019-05-19T01:24:21.511Z,76.50
2019-05-19T01:26:49.895Z,74.63
2019-05-19T01:29:18.268Z,80.07
2019-05-19T01:31:46.661Z,87.93
2019-05-19T01:34:15.040Z,89.57
2019-05-19T01:36:43.439Z,86.10
2019-05-19T01:39:11.819Z,107.10
2019-05-19T01:41:40.213Z,100.93
2019-05-19T01:44:08.597Z,107.60
2019-05-19T01:46:36.992Z,106.33
2019-05-19T01:49:05.375Z,107.17
2019-05-19T01:51:33.753Z,98.87
2019-05-19T01:54:02.145Z,99.17
2019-05-19T01:56:30.525Z,92.33
2019-05-19T01:58:58.922Z,96.67
2019-05-19T02:01:27.294Z,88.93
2019-05-19T02:03:55.687Z,88.70
2019-05-19T02:06:24.067Z,94.60
2019-05-19T02:08:52.459Z,89.73
2019-05-19T02:11:20.839Z,90.70
2019-05-19T02:13:49.220Z,94.13
2019-05-19T02:16:17.611Z,93.57
2019-05-19T02:18:45.987Z,94.27
2019-05-19T02:21:14.377Z,103.93
2019-05-19T02:23:42.763Z,95.73
2019-05-19T02:26:11.154Z,109.83
2019-05-19T02:28:39.543Z,103.83
2019-05-19T02:31:08.018Z,108.50
2019-05-19T02:33:36.469Z,111.60
2019-05-19T02:36:05.028Z,110.43
2019-05-19T02:38:33.423Z,112.20
2019-05-19T02:41:04.513Z,124.00
2019-05-19T02:43:34.242Z,116.97
2019-05-19T02:46:04.128Z,121.30
2019-05-19T02:48:33.223Z,123.43
2019-05-19T02:51:03.443Z,118.17
2019-05-19T02:53:33.040Z,119.03
2019-05-19T02:56:02.893Z,119.03
2019-05-19T02:58:32.367Z,127.10
2019-05-19T03:01:00.757Z,130.50
2019-05-19T03:03:29.145Z,134.00
2019-05-19T03:05:57.548Z,152.97
2019-05-19T03:08:25.986Z,136.73
2019-05-19T03:10:54.376Z,138.17
2019-05-19T03:13:22.752Z,137.93
2019-05-19T03:15:51.137Z,148.90
2019-05-19T03:18:19.528Z,141.23
2019-05-19T03:20:47.906Z,149.80
2019-05-19T03:23:16.301Z,150.60
2019-05-19T03:25:44.698Z,155.23
2019-05-19T03:28:13.082Z,153.87
2019-05-19T03:30:55.217Z,156.63
2019-05-19T03:33:25.257Z,163.43
2019-05-19T03:35:53.680Z,176.33
2019-05-19T03:38:22.264Z,164.13
2019-05-19T03:40:51.006Z,178.87
2019-05-19T03:43:19.388Z,187.07
2019-05-19T03:45:47.785Z,181.23
2019-05-19T03:48:16.159Z,188.00
2019-05-19T03:50:44.552Z,185.90
2019-05-19T03:53:12.940Z,178.03
2019-05-19T03:55:41.334Z,178.27
2019-05-19T03:58:09.716Z,173.83
2019-05-19T04:00:38.095Z,171.70
2019-05-19T04:03:06.485Z,177.50
2019-05-19T04:05:34.879Z,181.13
2019-05-19T04:08:03.255Z,163.47
2019-05-19T04:10:31.655Z,161.80
2019-05-19T04:13:00.031Z,165.43
2019-05-19T04:15:28.424Z,153.83
2019-05-19T04:17:56.808Z,163.17
2019-05-19T04:20:25.183Z,153.13
2019-05-19T04:22:53.583Z,158.13
2019-05-19T04:25:41.304Z,153.20
2019-05-19T04:28:09.700Z,162.53
2019-05-19T04:30:38.084Z,156.23
2019-05-19T04:33:06.466Z,150.77
2019-05-19T04:35:34.860Z,139.00
2019-05-19T04:38:03.240Z,142.37
2019-05-19T04:40:31.712Z,125.53
2019-05-19T04:43:00.102Z,127.10
2019-05-19T04:45:28.485Z,121.00
2019-05-19T04:47:56.865Z,111.37
2019-05-19T04:50:25.259Z,98.90
2019-05-19T04:52:53.632Z,89.63
2019-05-19T04:55:22.091Z,95.10
2019-05-19T04:57:50.471Z,89.50
2019-05-19T05:00:19.183Z,88.50
2019-05-19T05:02:47.575Z,76.67
2019-05-19T05:05:16.292Z,77.80
2019-05-19T05:07:44.682Z,78.70
2019-05-19T05:10:13.803Z,79.50
2019-05-19T05:12:42.175Z,77.20
2019-05-19T05:15:10.625Z,72.37
2019-05-19T05:17:39.011Z,72.07
2019-05-19T05:20:08.423Z,71.60
2019-05-19T05:22:36.885Z,70.03
2019-05-19T05:25:08.721Z,73.27
2019-05-19T05:27:37.090Z,70.43
2019-05-19T05:30:07.119Z,61.70
2019-05-19T05:32:35.495Z,63.97
2019-05-19T05:35:05.536Z,58.10
2019-05-19T05:37:33.907Z,59.90
2019-05-19T05:40:02.327Z,57.93
2019-05-19T05:42:31.927Z,56.83
2019-05-19T05:45:00.607Z,63.93
2019-05-19T05:47:28.995Z,55.67
2019-05-19T05:49:57.376Z,57.83
2019-05-19T05:52:37.982Z,60.23
2019-05-19T05:54:55.863Z,56.13
2019-05-19T05:57:24.239Z,54.53
2019-05-19T05:59:52.628Z,56.17
2019-05-19T06:02:21.006Z,58.23
2019-05-19T06:04:49.395Z,52.30
2019-05-19T06:07:17.777Z,52.80
2019-05-19T06:09:46.174Z,49.90
2019-05-19T06:12:14.575Z,52.27
2019-05-19T06:14:43.207Z,49.60
2019-05-19T06:17:11.595Z,50.37
2019-05-19T06:19:39.972Z,51.00
2019-05-19T06:22:08.364Z,51.97
2019-05-19T06:24:36.735Z,50.53
2019-05-19T06:27:05.130Z,48.57
2019-05-19T06:29:33.504Z,50.47
2019-05-19T06:32:03.536Z,54.63
2019-05-19T06:34:31.915Z,53.50
2019-05-19T06:37:00.305Z,49.47
2019-05-19T06:39:28.691Z,46.53
2019-05-19T06:41:57.067Z,51.17
2019-05-19T06:44:25.435Z,47.70
2019-05-19T06:46:53.823Z,51.93
2019-05-19T06:49:22.200Z,48.27
2019-05-19T06:51:50.592Z,54.13
2019-05-19T06:54:18.972Z,51.17
2019-05-19T06:56:47.896Z,48.73
2019-05-19T06:59:16.286Z,52.83
2019-05-19T07:01:44.656Z,55.27
2019-05-19T07:04:13.064Z,52.63
2019-05-19T07:06:41.504Z,56.97
2019-05-19T07:09:09.919Z,50.73
2019-05-19T07:11:38.303Z,56.87
2019-05-19T07:14:06.697Z,54.00
2019-05-19T07:16:35.067Z,54.53
2019-05-19T07:19:03.452Z,54.30
2019-05-19T07:21:31.850Z,52.27
2019-05-19T07:24:00.224Z,56.70
2019-05-19T07:26:28.614Z,56.40
2019-05-19T07:28:58.929Z,52.07
2019-05-19T07:31:27.108Z,54.77
2019-05-19T07:33:55.480Z,57.43
2019-05-19T07:36:23.861Z,56.30
2019-05-19T07:38:52.264Z,54.97
2019-05-19T07:41:20.649Z,53.60
2019-05-19T07:43:49.100Z,50.07
2019-05-19T07:46:17.493Z,49.23
2019-05-19T07:48:45.961Z,49.83
2019-05-19T07:51:14.335Z,50.80
2019-05-19T07:53:43.453Z,49.90
2019-05-19T07:56:11.883Z,54.10
2019-05-19T07:58:40.285Z,51.90
2019-05-19T08:01:08.681Z,47.03
2019-05-19T08:03:37.048Z,52.53
2019-05-19T08:06:05.518Z,48.30
2019-05-19T08:08:33.920Z,50.67
2019-05-19T08:11:02.303Z,51.33
2019-05-19T08:13:30.683Z,51.60
2019-05-19T08:15:59.148Z,53.60
2019-05-19T08:18:27.528Z,50.20
2019-05-19T08:20:55.922Z,50.60
2019-05-19T08:23:24.301Z,51.30
2019-05-19T08:25:52.685Z,49.93
2019-05-19T08:28:21.063Z,50.13
2019-05-19T08:30:49.447Z,46.37
2019-05-19T08:33:17.865Z,49.10
2019-05-19T08:35:46.241Z,48.73
2019-05-19T08:38:14.615Z,49.77
2019-05-19T08:40:43.018Z,47.30
2019-05-19T08:43:11.545Z,43.77
2019-05-19T08:45:39.994Z,48.17
2019-05-19T08:48:08.370Z,42.97
2019-05-19T08:50:36.747Z,41.20
2019-05-19T08:53:05.135Z,42.30
2019-05-19T08:55:33.520Z,41.33
2019-05-19T08:58:02.145Z,39.60
2019-05-19T09:00:34.143Z,41.50
2019-05-19T09:03:00.735Z,38.75
2019-05-19T09:05:29.134Z,43.17
2019-05-19T09:07:57.508Z,41.40
2019-05-19T09:10:25.908Z,39.67
2019-05-19T09:12:54.287Z,39.90
2019-05-19T09:15:22.667Z,37.88
2019-05-19T09:17:54.087Z,39.48
2019-05-19T09:20:21.712Z,35.05
2019-05-19T09:22:50.095Z,35.78
2019-05-19T09:25:18.491Z,39.92
2019-05-19T09:27:46.867Z,38.28
2019-05-19T09:30:15.604Z,38.20
2019-05-19T09:32:43.982Z,38.92
2019-05-19T09:35:13.967Z,37.10
2019-05-19T09:37:42.363Z,35.08
2019-05-19T09:40:11.071Z,36.28
2019-05-19T09:42:39.444Z,38.15
2019-05-19T09:45:08.785Z,37.78
2019-05-19T09:47:37.706Z,35.75
2019-05-19T09:50:07.075Z,39.63
2019-05-19T09:52:35.448Z,35.17
2019-05-19T09:55:05.139Z,32.50
2019-05-19T09:57:33.708Z,34.95
2019-05-19T10:00:02.227Z,36.93
2019-05-19T10:02:30.616Z,36.33
2019-05-19T10:04:58.996Z,31.93
2019-05-19T10:07:27.387Z,31.80
2019-05-19T10:10:01.108Z,30.82
2019-05-19T10:12:30.039Z,34.55
2019-05-19T10:14:58.491Z,29.05
2019-05-19T10:17:26.892Z,34.38
2019-05-19T10:19:55.260Z,28.95
2019-05-19T10:22:23.632Z,35.23
2019-05-19T10:25:10.522Z,31.52
2019-05-19T10:27:22.407Z,33.35
2019-05-19T10:29:50.816Z,30.43
2019-05-19T10:32:19.200Z,28.67
2019-05-19T10:34:47.580Z,31.55
2019-05-19T10:37:15.985Z,31.17
2019-05-19T10:39:44.348Z,28.38
2019-05-19T10:42:12.744Z,27.25
2019-05-19T10:44:41.128Z,28.15
2019-05-19T10:47:09.522Z,27.67
2019-05-19T10:49:37.963Z,27.13
2019-05-19T10:52:06.412Z,27.82
2019-05-19T10:54:35.567Z,28.32
2019-05-19T10:57:04.016Z,25.08
2019-05-19T10:59:32.403Z,23.38
2019-05-19T11:02:00.776Z,19.27
2019-05-19T11:04:29.179Z,20.48
2019-05-19T11:06:57.554Z,20.95
2019-05-19T11:09:25.934Z,27.40
2019-05-19T11:11:54.311Z,22.95
2019-05-19T11:14:22.703Z,25.00
2019-05-19T11:16:51.092Z,19.40
2019-05-19T11:19:19.464Z,16.57
2019-05-19T11:21:47.844Z,19.02
2019-05-19T11:24:16.231Z,15.30
2019-05-19T11:26:44.624Z,17.98
2019-05-19T11:29:13.367Z,18.60
2019-05-19T11:31:41.755Z,16.80
2019-05-19T11:34:10.138Z,9.93
2019-05-19T11:36:38.503Z,9.40
2019-05-19T11:39:08.032Z,9.05
2019-05-19T11:41:36.471Z,9.65
2019-05-19T11:44:04.955Z,9.93
2019-05-19T11:46:33.443Z,12.30
2019-05-19T11:49:01.874Z,10.75
2019-05-19T11:51:30.307Z,15.65
2019-05-19T11:53:58.687Z,11.15
2019-05-19T11:56:27.063Z,11.97
2019-05-19T11:58:55.447Z,8.63
2019-05-19T12:01:23.819Z,9.15
2019-05-19T12:03:55.255Z,9.63
2019-05-19T12:06:37.616Z,9.60
2019-05-19T12:08:52.408Z,10.10
2019-05-19T12:11:20.800Z,9.85
2019-05-19T12:13:49.184Z,8.60
2019-05-19T12:16:17.552Z,8.13
2019-05-19T12:18:45.928Z,9.48
2019-05-19T12:21:14.308Z,7.20
2019-05-19T12:23:42.694Z,6.92
2019-05-19T12:26:22.680Z,5.45
2019-05-19T12:28:41.176Z,6.33
2019-05-19T12:31:09.629Z,8.75
2019-05-19T12:33:51.163Z,9.60
2019-05-19T12:36:08.130Z,10.00
2019-05-19T12:38:36.503Z,8.15
2019-05-19T12:41:04.876Z,5.67
2019-05-19T12:43:33.252Z,6.15
2019-05-19T12:46:01.662Z,9.93
2019-05-19T12:48:30.108Z,9.10
2019-05-19T12:50:58.504Z,10.35
2019-05-19T12:53:26.881Z,8.35
2019-05-19T12:55:55.255Z,8.70
2019-05-19T12:58:23.657Z,7.78
2019-05-19T13:00:52.015Z,9.63
2019-05-19T13:03:20.412Z,8.98
2019-05-19T13:05:48.784Z,8.53
2019-05-19T13:08:17.168Z,12.98
2019-05-19T13:10:45.559Z,10.60
2019-05-19T13:13:13.941Z,10.32
2019-05-19T13:15:42.319Z,8.90
2019-05-19T13:18:10.702Z,9.50
2019-05-19T13:20:39.072Z,7.87
2019-05-19T13:23:07.459Z,6.83
2019-05-19T13:25:35.865Z,7.58
2019-05-19T13:28:04.356Z,7.75
2019-05-19T13:30:32.730Z,7.80
2019-05-19T13:33:01.111Z,10.65
2019-05-19T13:35:29.505Z,6.35
2019-05-19T13:37:57.957Z,6.90
2019-05-19T13:40:26.346Z,4.72
2019-05-19T13:42:54.711Z,5.80
2019-05-19T13:45:23.175Z,7.00
2019-05-19T13:47:51.559Z,7.60
2019-05-19T13:50:19.942Z,5.97
2019-05-19T13:52:51.121Z,6.67
2019-05-19T13:55:18.423Z,6.12
2019-05-19T13:57:46.792Z,9.20
2019-05-19T14:00:17.772Z,8.45
2019-05-19T14:02:46.179Z,5.58
2019-05-19T14:05:14.560Z,7.30
2019-05-19T14:07:42.940Z,4.92
2019-05-19T14:10:11.856Z,4.65
2019-05-19T14:12:40.236Z,6.70
2019-05-19T14:15:08.611Z,6.22
2019-05-19T14:17:36.987Z,6.80
2019-05-19T14:20:07.511Z,6.00
2019-05-19T14:22:35.884Z,6.22
2019-05-19T14:25:05.600Z,6.60
2019-05-19T14:27:33.977Z,5.75
2019-05-19T14:30:02.360Z,9.05
2019-05-19T14:32:30.807Z,6.55
2019-05-19T14:34:59.191Z,6.47
2019-05-19T14:37:27.583Z,6.05
2019-05-19T14:39:56.035Z,8.18
2019-05-19T14:42:42.564Z,6.25
2019-05-19T14:45:11.744Z,9.40
2019-05-19T14:47:40.120Z,8.35
2019-05-19T14:50:09.044Z,8.10
2019-05-19T14:52:37.432Z,6.33
2019-05-19T14:55:06.961Z,21.17
2019-05-19T14:57:44.369Z,22.43
2019-05-19T15:00:06.639Z,23.43
2019-05-19T15:02:35.012Z,23.50
2019-05-19T15:05:03.772Z,24.07
2019-05-19T15:07:32.154Z,25.63
2019-05-19T15:10:00.531Z,22.83
2019-05-19T15:12:28.993Z,21.37
2019-05-19T15:14:57.398Z,26.93
2019-05-19T15:17:25.776Z,24.33
2019-05-19T15:19:54.163Z,29.87
2019-05-19T15:22:22.543Z,31.80
2019-05-19T15:24:50.927Z,29.77
2019-05-19T15:27:19.332Z,37.83
2019-05-19T15:29:47.719Z,36.17
2019-05-19T15:32:16.175Z,35.47
2019-05-19T15:34:44.552Z,5.50
2019-05-19T15:37:12.936Z,7.37
2019-05-19T15:39:41.303Z,4.77
2019-05-19T15:42:09.684Z,8.80
2019-05-19T15:44:38.090Z,7.37
2019-05-19T15:47:06.440Z,13.33
2019-05-19T15:49:34.811Z,13.57
2019-05-19T15:52:05.375Z,16.70
2019-05-19T15:54:33.362Z,9.47
2019-05-19T15:57:01.740Z,11.67
2019-05-19T15:59:30.124Z,13.30
2019-05-19T16:01:58.566Z,11.63
2019-05-19T16:04:26.931Z,13.83
2019-05-19T16:06:55.316Z,15.40
2019-05-19T16:09:23.691Z,22.37
2019-05-19T16:11:52.080Z,18.10
2019-05-19T16:14:20.451Z,18.90
2019-05-19T16:16:48.843Z,24.07
2019-05-19T16:19:17.215Z,27.13
2019-05-19T16:21:45.603Z,35.28
2019-05-19T16:24:13.991Z,33.57
2019-05-19T16:26:42.367Z,32.50
2019-05-19T16:29:10.755Z,37.67
2019-05-19T16:31:39.135Z,39.40
2019-05-19T16:34:07.550Z,37.13
2019-05-19T16:36:35.988Z,35.07
2019-05-19T16:39:06.308Z,21.27
2019-05-19T16:41:34.710Z,19.87
2019-05-19T16:44:03.251Z,25.17
2019-05-19T16:46:31.635Z,21.53
2019-05-19T16:49:00.023Z,18.70
2019-05-19T16:51:28.404Z,22.40
2019-05-19T16:54:00.412Z,20.67
2019-05-19T16:56:28.793Z,26.23
2019-05-19T16:58:57.171Z,21.43
2019-05-19T17:01:25.555Z,24.17
2019-05-19T17:03:53.970Z,32.60
2019-05-19T17:06:22.328Z,26.67
2019-05-19T17:08:50.721Z,29.03
2019-05-19T17:11:19.104Z,31.40
2019-05-19T17:13:47.498Z,24.97
2019-05-19T17:16:15.875Z,26.80
2019-05-19T17:18:44.256Z,30.30
2019-05-19T17:21:12.652Z,28.53
2019-05-19T17:23:41.040Z,29.17
2019-05-19T17:26:09.419Z,22.70
2019-05-19T17:28:37.860Z,25.83
2019-05-19T17:31:07.693Z,21.57
2019-05-19T17:33:36.339Z,24.90
2019-05-19T17:36:04.719Z,23.70
2019-05-19T17:38:33.101Z,17.80
2019-05-19T17:41:01.476Z,13.17
2019-05-19T17:43:29.886Z,10.63
2019-05-19T17:45:58.311Z,11.80
2019-05-19T17:48:27.087Z,9.17
2019-05-19T17:50:55.639Z,9.97
2019-05-19T17:53:24.099Z,10.80
2019-05-19T17:55:54.232Z,12.20
2019-05-19T17:58:23.147Z,11.17
2019-05-19T18:00:51.528Z,13.13
2019-05-19T18:03:19.980Z,14.83
2019-05-19T18:05:48.355Z,17.10
2019-05-19T18:08:16.744Z,16.23
2019-05-19T18:10:47.433Z,17.30
2019-05-19T18:13:15.803Z,13.67
2019-05-19T18:15:44.176Z,14.77
2019-05-19T18:18:12.554Z,12.43
2019-05-19T18:20:40.940Z,13.07
2019-05-19T18:23:09.324Z,11.57
2019-05-19T18:25:37.754Z,13.87
2019-05-19T18:28:06.208Z,12.47
2019-05-19T18:30:34.696Z,12.97
2019-05-19T18:33:03.142Z,11.73
2019-05-19T18:35:31.555Z,12.07
2019-05-19T18:37:59.948Z,10.87
2019-05-19T18:40:28.311Z,11.23
2019-05-19T18:42:56.683Z,11.13
2019-05-19T18:45:25.072Z,12.50
2019-05-19T18:47:53.467Z,15.17
2019-05-19T18:50:21.848Z,16.20
2019-05-19T18:52:50.223Z,17.73
2019-05-19T18:55:18.619Z,17.40
2019-05-19T18:57:47.002Z,20.17
2019-05-19T19:00:18.452Z,20.17
2019-05-19T19:02:48.013Z,19.23
2019-05-19T19:05:16.601Z,22.27
2019-05-19T19:07:52.792Z,22.70
2019-05-19T19:10:21.300Z,24.80
2019-05-19T19:12:49.661Z,22.17
2019-05-19T19:15:18.050Z,24.10
2019-05-19T19:17:46.445Z,23.10
2019-05-19T19:20:15.261Z,21.33
2019-05-19T19:22:43.645Z,22.33
2019-05-19T19:25:12.212Z,27.37
2019-05-19T19:27:40.591Z,27.63
2019-05-19T19:30:09.552Z,25.33
2019-05-19T19:32:37.936Z,25.97
2019-05-19T19:35:07.201Z,29.20
2019-05-19T19:37:35.583Z,27.60
2019-05-19T19:40:06.913Z,31.33
2019-05-19T19:42:35.292Z,37.50
2019-05-19T19:45:04.620Z,39.23
2019-05-19T19:47:33.008Z,43.43
2019-05-19T19:50:01.431Z,53.67
2019-05-19T19:52:29.840Z,54.17
2019-05-19T19:54:58.232Z,51.73
2019-05-19T19:57:26.603Z,44.80
2019-05-19T19:59:54.992Z,45.10
2019-05-19T20:02:23.371Z,50.63
2019-05-19T20:05:11.164Z,47.57
2019-05-19T20:07:39.560Z,49.60
2019-05-19T20:10:08.108Z,59.03
2019-05-19T20:12:36.500Z,62.13
2019-05-19T20:15:05.623Z,64.70
2019-05-19T20:17:34.003Z,70.27
2019-05-19T20:20:02.404Z,63.13
2019-05-19T20:22:30.772Z,71.77
2019-05-19T20:24:59.164Z,67.43
2019-05-19T20:27:27.558Z,68.43
2019-05-19T20:29:55.943Z,64.87
2019-05-19T20:32:24.310Z,57.93
2019-05-19T20:34:52.699Z,58.90
2019-05-19T20:37:21.079Z,53.77
2019-05-19T20:39:49.456Z,60.87
2019-05-19T20:42:17.849Z,57.87
2019-05-19T20:44:46.224Z,64.80
2019-05-19T20:47:14.620Z,62.03
2019-05-19T20:49:42.997Z,59.97
2019-05-19T20:52:11.367Z,57.70
2019-05-19T20:54:40.036Z,64.77
2019-05-19T20:57:08.415Z,61.20
2019-05-19T20:59:36.787Z,60.27
2019-05-19T21:02:05.243Z,60.77
2019-05-19T21:04:33.618Z,64.67
2019-05-19T21:07:02.004Z,55.63
2019-05-19T21:09:30.379Z,58.60
2019-05-19T21:11:58.767Z,55.67
2019-05-19T21:14:27.144Z,53.43
2019-05-19T21:16:55.532Z,56.93
2019-05-19T21:19:23.925Z,65.07
2019-05-19T21:21:52.304Z,64.47
2019-05-19T21:24:20.680Z,66.13
2019-05-19T21:26:49.079Z,68.87
2019-05-19T21:29:36.796Z,61.23
2019-05-19T21:32:05.188Z,56.10
2019-05-19T21:34:33.556Z,55.53
2019-05-19T21:37:01.954Z,57.77
2019-05-19T21:39:30.323Z,57.20
2019-05-19T21:41:58.973Z,55.67
2019-05-19T21:44:30.093Z,58.83
2019-05-19T21:46:58.475Z,57.87
2019-05-19T21:49:26.859Z,60.10
2019-05-19T21:51:55.238Z,65.57
2019-05-19T21:54:23.619Z,63.13
2019-05-19T21:56:51.999Z,65.00
2019-05-19T21:59:20.392Z,68.93
2019-05-19T22:01:48.773Z,72.77
2019-05-19T22:04:17.151Z,87.73
2019-05-19T22:07:03.183Z,81.33
2019-05-19T22:09:31.564Z,84.17
2019-05-19T22:11:59.955Z,84.33
2019-05-19T22:14:28.339Z,85.27
2019-05-19T22:16:56.731Z,84.10
2019-05-19T22:19:25.105Z,85.80
2019-05-19T22:21:53.499Z,83.70
2019-05-19T22:24:21.877Z,84.43
2019-05-19T22:26:50.252Z,75.83
2019-05-19T22:29:18.710Z,87.27
2019-05-19T22:31:47.091Z,79.67
2019-05-19T22:34:15.480Z,90.10
2019-05-19T22:36:43.856Z,80.73
2019-05-19T22:39:12.236Z,79.67
2019-05-19T22:41:40.616Z,85.57
2019-05-19T22:44:09.003Z,80.33
2019-05-19T22:46:37.380Z,87.53
2019-05-19T22:49:05.767Z,85.43
2019-05-19T22:51:34.135Z,88.13
2019-05-19T22:54:02.521Z,89.57
2019-05-19T22:56:30.904Z,92.07
2019-05-19T22:58:59.279Z,94.40
2019-05-19T23:01:27.656Z,90.80
2019-05-19T23:03:56.043Z,104.67
2019-05-19T23:06:24.436Z,116.30
2019-05-19T23:08:52.899Z,126.87
2019-05-19T23:11:21.295Z,137.03
2019-05-19T23:13:49.675Z,137.77
2019-05-19T23:16:18.073Z,143.10
2019-05-19T23:18:46.535Z,139.83
2019-05-19T23:21:14.916Z,148.60
2019-05-19T23:24:01.604Z,150.47
2019-05-19T23:26:29.983Z,158.93
2019-05-19T23:28:58.363Z,169.27
2019-05-19T23:31:26.759Z,179.90
2019-05-19T23:33:55.140Z,202.83
2019-05-19T23:36:23.522Z,231.40
2019-05-19T23:38:51.907Z,255.40
2019-05-19T23:41:20.288Z,306.80
2019-05-19T23:43:48.680Z,292.97
2019-05-19T23:46:17.067Z,288.60
2019-05-19T23:48:45.451Z,309.87
2019-05-19T23:51:13.848Z,322.83
2019-05-19T23:53:42.227Z,346.23
2019-05-19T23:56:10.630Z,337.67
2019-05-19T23:58:39.007Z,351.13
